Plock, Poland

9:40 PM CET on November 21, 2014 (GMT +0100)
Modlin Mil | Change Station
CLOSE
Current Station
Airport
Location: Modlin Airport,
Elevation: 338 ft
Nearby Weather Stations

Elev 338 ft 52.45 °N, 20.65 °E | Updated 10 minutes ago

Overcast
Overcast
36 °F
Feels Like 36 °F
N
2
Wind Variable Wind from West

Today
High -- | Low -- °F
--% Chance of Precip.
Yesterday
High -- | Low -- °F
Precip. -- in
7:13 AM 3:40 PM
Waning Crescent, 1% visible
Pressure 30.33 in
Visibility 1.2 miles
Clouds Overcast 1800 ft
Dew Point 36 °F
Humidity 100%
Rainfall 0.00 in
Snow Depth Not available.
UV 0 out of 12
Pollen Not available.
Air Quality Not available.
Flu Activity Not available.
METAR EPMO 212030Z 28002KT 2000 BR OVC018 02/02 Q1027

More Conditions Fewer Conditions

Pressure 30.33 in
Visibility 1.2 miles
Clouds Overcast 1800 ft
Dew Point 36 °F
Humidity 100%
Rainfall 0.00 in
Snow Depth Not available.
UV 0 out of 12
Pollen Not available.
Air Quality Not available.
Flu Activity Not available.
METAR EPMO 212030Z 28002KT 2000 BR OVC018 02/02 Q1027

More Conditions Fewer Conditions

10-Day Weather Forecast

Almanac

Astronomy

Nov. 21, 2014 Rise Set
Actual Time
Civil Twilight
Nautical Twilight
Astronomical Twilight
Moon
Length of Visible Light
Length of Day
Tomorrow will be .
, % of the Moon is Illuminated

Today's Extremes

Country Highs Country Lows

Community

WunderPhotos

Upload Photos

1,772,713 photos uploaded!

WunderBlogs® & News

Nearby

Air Quality

  Air Quality AQ Index Pollutant
Not available.

Snow Depth

Station Depth Elevation

Earthquake Activity

City Distance Mag. Time & Date
Minimum magnitude displayed is 2.5.

Coastal Water Temperatures

Place Temperature

Nearby Weather Stations